createdAt,value
2019-03-29T00:00:13.343Z,5.03
2019-03-29T00:02:43.036Z,5.60
2019-03-29T00:05:13.359Z,4.95
2019-03-29T00:07:42.565Z,5.90
2019-03-29T00:10:11.652Z,4.95
2019-03-29T00:12:40.551Z,5.70
2019-03-29T00:15:10.880Z,5.45
2019-03-29T00:17:40.830Z,7.55
2019-03-29T00:20:09.754Z,6.60
2019-03-29T00:22:39.101Z,6.10
2019-03-29T00:25:08.231Z,5.92
2019-03-29T00:27:37.283Z,5.33
2019-03-29T00:30:07.181Z,5.33
2019-03-29T00:32:36.294Z,5.83
2019-03-29T00:35:07.957Z,5.70
2019-03-29T00:37:37.246Z,6.17
2019-03-29T00:40:07.784Z,5.85
2019-03-29T00:42:36.876Z,5.80
2019-03-29T00:45:07.737Z,6.20
2019-03-29T00:47:36.809Z,6.15
2019-03-29T00:50:08.969Z,6.58
2019-03-29T00:52:38.266Z,6.10
2019-03-29T00:55:07.457Z,5.90
2019-03-29T00:57:36.552Z,6.42
2019-03-29T01:00:07.585Z,6.10
2019-03-29T01:02:36.697Z,7.05
2019-03-29T01:05:07.316Z,6.35
2019-03-29T01:07:36.447Z,6.33
2019-03-29T01:10:08.287Z,6.45
2019-03-29T01:12:37.273Z,7.20
2019-03-29T01:15:09.899Z,6.50
2019-03-29T01:17:39.949Z,6.67
2019-03-29T01:20:09.555Z,6.35
2019-03-29T01:22:38.833Z,6.67
2019-03-29T01:25:08.557Z,6.42
2019-03-29T01:27:37.851Z,7.35
2019-03-29T01:30:08.680Z,7.22
2019-03-29T01:32:37.662Z,7.58
2019-03-29T01:35:09.052Z,8.50
2019-03-29T01:37:39.543Z,9.08
2019-03-29T01:40:09.135Z,7.78
2019-03-29T01:42:38.562Z,8.23
2019-03-29T01:45:08.932Z,7.78
2019-03-29T01:47:38.081Z,7.62
2019-03-29T01:50:08.159Z,7.47
2019-03-29T01:52:37.695Z,7.87
2019-03-29T01:55:07.414Z,7.58
2019-03-29T01:57:36.609Z,6.58
2019-03-29T02:00:09.153Z,6.85
2019-03-29T02:02:38.391Z,7.37
2019-03-29T02:05:07.887Z,6.67
2019-03-29T02:07:38.009Z,8.48
2019-03-29T02:10:09.035Z,8.50
2019-03-29T02:12:38.308Z,8.25
2019-03-29T02:15:09.080Z,7.25
2019-03-29T02:17:38.471Z,7.28
2019-03-29T02:20:08.086Z,7.42
2019-03-29T02:22:37.386Z,7.22
2019-03-29T02:25:25.637Z,7.92
2019-03-29T02:27:54.728Z,7.00
2019-03-29T02:30:24.741Z,6.20
2019-03-29T02:32:53.843Z,6.10
2019-03-29T02:35:22.927Z,7.42
2019-03-29T02:37:51.823Z,6.83
2019-03-29T02:40:22.628Z,6.53
2019-03-29T02:42:51.443Z,5.85
2019-03-29T02:45:20.543Z,7.47
2019-03-29T02:47:49.740Z,7.00
2019-03-29T02:50:18.723Z,6.83
2019-03-29T02:52:47.623Z,6.72
2019-03-29T02:55:16.846Z,7.08
2019-03-29T02:57:45.708Z,6.95
2019-03-29T03:00:16.641Z,7.10
2019-03-29T03:02:45.742Z,7.08
2019-03-29T03:05:14.846Z,6.62
2019-03-29T03:07:43.734Z,6.10
2019-03-29T03:10:13.291Z,6.78
2019-03-29T03:12:42.338Z,6.42
2019-03-29T03:15:12.724Z,6.47
2019-03-29T03:17:41.648Z,7.53
2019-03-29T03:20:15.369Z,7.12
2019-03-29T03:22:43.551Z,8.30
2019-03-29T03:25:13.243Z,7.70
2019-03-29T03:27:44.488Z,6.62
2019-03-29T03:30:13.957Z,7.25
2019-03-29T03:32:43.058Z,7.17
2019-03-29T03:35:12.867Z,7.00
2019-03-29T03:37:42.918Z,6.05
2019-03-29T03:40:12.322Z,6.10
2019-03-29T03:42:42.438Z,6.40
2019-03-29T03:45:12.961Z,6.15
2019-03-29T03:47:42.158Z,6.60
2019-03-29T03:50:32.454Z,7.37
2019-03-29T03:53:01.758Z,6.83
2019-03-29T03:55:33.841Z,9.20
2019-03-29T03:58:04.356Z,8.03
2019-03-29T04:00:54.749Z,7.80
2019-03-29T04:03:24.145Z,7.05
2019-03-29T04:05:54.484Z,8.10
2019-03-29T04:08:23.785Z,7.72
2019-03-29T04:10:52.877Z,8.23
2019-03-29T04:13:21.962Z,7.78
2019-03-29T04:15:51.156Z,7.53
2019-03-29T04:18:20.263Z,7.65
2019-03-29T04:20:51.387Z,7.92
2019-03-29T04:23:20.806Z,10.08
2019-03-29T04:25:49.902Z,10.18
2019-03-29T04:28:18.996Z,9.03
2019-03-29T04:30:48.282Z,8.28
2019-03-29T04:33:17.276Z,8.98
2019-03-29T04:35:46.163Z,8.45
2019-03-29T04:38:15.480Z,10.40
2019-03-29T04:40:44.454Z,9.35
2019-03-29T04:43:13.448Z,8.98
2019-03-29T04:45:42.551Z,9.48
2019-03-29T04:48:11.437Z,8.73
2019-03-29T04:50:40.406Z,8.78
2019-03-29T04:53:09.737Z,9.73
2019-03-29T04:55:38.732Z,9.15
2019-03-29T04:58:08.947Z,10.13
2019-03-29T05:00:38.266Z,10.10
2019-03-29T05:03:07.248Z,10.53
2019-03-29T05:05:36.338Z,8.43
2019-03-29T05:08:05.534Z,9.10
2019-03-29T05:10:35.161Z,9.68
2019-03-29T05:13:04.028Z,9.98
2019-03-29T05:15:33.133Z,8.10
2019-03-29T05:18:03.259Z,10.40
2019-03-29T05:20:32.136Z,9.10
2019-03-29T05:23:01.348Z,10.35
2019-03-29T05:25:30.222Z,8.45
2019-03-29T05:27:59.442Z,8.10
2019-03-29T05:30:28.934Z,7.83
2019-03-29T05:32:57.922Z,6.70
2019-03-29T05:35:27.023Z,7.60
2019-03-29T05:37:56.222Z,7.05
2019-03-29T05:40:34.722Z,5.03
2019-03-29T05:42:55.947Z,4.78
2019-03-29T05:45:25.081Z,6.53
2019-03-29T05:47:54.127Z,6.47
2019-03-29T05:50:23.127Z,6.45
2019-03-29T05:52:52.330Z,6.53
2019-03-29T05:55:31.960Z,7.50
2019-03-29T05:57:51.743Z,7.05
2019-03-29T06:00:21.047Z,7.37
2019-03-29T06:02:49.925Z,7.35
2019-03-29T06:05:18.930Z,6.80
2019-03-29T06:07:48.127Z,7.35
2019-03-29T06:10:17.237Z,6.90
2019-03-29T06:12:46.360Z,7.05
2019-03-29T06:15:15.723Z,7.53
2019-03-29T06:17:49.043Z,6.62
2019-03-29T06:20:16.144Z,7.08
2019-03-29T06:22:46.515Z,6.53
2019-03-29T06:25:17.433Z,6.95
2019-03-29T06:27:47.548Z,7.35
2019-03-29T06:30:19.715Z,7.90
2019-03-29T06:32:48.912Z,8.05
2019-03-29T06:35:17.798Z,6.65
2019-03-29T06:37:47.102Z,6.95
2019-03-29T06:40:28.600Z,8.20
2019-03-29T06:42:58.047Z,7.42
2019-03-29T06:45:27.192Z,7.00
2019-03-29T06:47:56.195Z,7.67
2019-03-29T06:50:25.492Z,6.28
2019-03-29T06:52:54.568Z,7.00
2019-03-29T06:55:23.661Z,7.17
2019-03-29T06:57:52.864Z,7.53
2019-03-29T07:00:21.873Z,6.72
2019-03-29T07:02:50.972Z,8.38
2019-03-29T07:05:20.137Z,8.90
2019-03-29T07:07:49.256Z,8.85
2019-03-29T07:10:18.171Z,6.42
2019-03-29T07:12:47.417Z,6.50
2019-03-29T07:15:37.232Z,8.38
2019-03-29T07:18:06.313Z,8.35
2019-03-29T07:20:35.414Z,8.63
2019-03-29T07:23:04.513Z,7.12
2019-03-29T07:25:33.604Z,7.75
2019-03-29T07:28:02.692Z,7.30
2019-03-29T07:30:31.692Z,7.60
2019-03-29T07:33:00.911Z,7.97
2019-03-29T07:35:29.875Z,7.85
2019-03-29T07:37:58.873Z,11.65
2019-03-29T07:40:28.153Z,13.68
2019-03-29T07:42:57.057Z,12.68
2019-03-29T07:45:26.077Z,13.18
2019-03-29T07:47:55.272Z,12.23
2019-03-29T07:50:24.352Z,12.28
2019-03-29T07:52:53.458Z,12.60
2019-03-29T07:55:22.552Z,13.22
2019-03-29T07:57:51.662Z,14.00
2019-03-29T08:00:20.953Z,15.90
2019-03-29T08:02:50.141Z,15.10
2019-03-29T08:05:19.135Z,17.15
2019-03-29T08:07:48.232Z,15.15
2019-03-29T08:10:25.757Z,17.82
2019-03-29T08:12:49.264Z,14.78
2019-03-29T08:15:18.680Z,18.75
2019-03-29T08:17:47.796Z,16.37
2019-03-29T08:20:38.784Z,14.40
2019-03-29T08:22:47.291Z,17.27
2019-03-29T08:25:16.493Z,14.78
2019-03-29T08:27:45.483Z,13.62
2019-03-29T08:30:14.541Z,14.98
2019-03-29T08:32:44.981Z,17.27
2019-03-29T08:35:15.969Z,14.50
2019-03-29T08:37:44.933Z,16.65
2019-03-29T08:40:14.144Z,14.38
2019-03-29T08:42:43.252Z,13.08
2019-03-29T08:45:12.343Z,13.43
2019-03-29T08:47:42.815Z,11.93
2019-03-29T08:50:11.873Z,15.85
2019-03-29T08:52:41.062Z,13.48
2019-03-29T08:55:10.599Z,13.20
2019-03-29T08:57:39.670Z,14.98
2019-03-29T09:00:09.072Z,15.08
2019-03-29T09:02:38.352Z,15.58
2019-03-29T09:05:07.352Z,15.15
2019-03-29T09:07:44.518Z,18.77
2019-03-29T09:10:10.152Z,17.07
2019-03-29T09:12:39.256Z,16.42
2019-03-29T09:15:08.256Z,18.00
2019-03-29T09:17:37.624Z,20.20
2019-03-29T09:20:10.195Z,17.82
2019-03-29T09:22:37.572Z,21.73
2019-03-29T09:25:06.919Z,19.42
2019-03-29T09:27:35.973Z,18.90
2019-03-29T09:30:05.533Z,22.60
2019-03-29T09:32:34.665Z,20.35
2019-03-29T09:35:03.772Z,19.50
2019-03-29T09:37:32.897Z,19.27
2019-03-29T09:40:02.179Z,18.70
2019-03-29T09:42:31.278Z,16.12
2019-03-29T09:45:00.469Z,19.05
2019-03-29T09:47:36.788Z,19.60
2019-03-29T09:50:00.550Z,15.50
2019-03-29T09:52:29.466Z,17.82
2019-03-29T09:54:58.573Z,18.48
2019-03-29T09:57:37.187Z,16.75
2019-03-29T09:59:58.313Z,19.30
2019-03-29T10:02:27.413Z,18.87
2019-03-29T10:04:56.594Z,25.50
2019-03-29T10:07:25.459Z,20.77
2019-03-29T10:09:54.472Z,20.77
2019-03-29T10:12:23.573Z,15.90
2019-03-29T10:14:52.485Z,18.87
2019-03-29T10:17:21.692Z,21.93
2019-03-29T10:19:51.003Z,17.62
2019-03-29T10:22:20.989Z,18.70
2019-03-29T10:24:50.072Z,17.35
2019-03-29T10:27:19.325Z,17.75
2019-03-29T10:29:48.573Z,18.77
2019-03-29T10:32:17.573Z,20.15
2019-03-29T10:34:46.873Z,18.55
2019-03-29T10:37:15.974Z,22.37
2019-03-29T10:39:45.074Z,22.15
2019-03-29T10:42:14.354Z,23.50
2019-03-29T10:44:43.335Z,20.35
2019-03-29T10:47:12.230Z,21.60
2019-03-29T10:49:41.586Z,20.68
2019-03-29T10:52:10.777Z,25.25
2019-03-29T10:54:39.743Z,20.43
2019-03-29T10:57:08.758Z,21.82
2019-03-29T10:59:37.810Z,22.65
2019-03-29T11:02:07.043Z,20.00
2019-03-29T11:04:36.396Z,24.80
2019-03-29T11:07:05.514Z,22.00
2019-03-29T11:09:37.009Z,18.87
2019-03-29T11:12:05.612Z,16.05
2019-03-29T11:14:34.770Z,15.03
2019-03-29T11:17:03.850Z,18.52
2019-03-29T11:19:33.134Z,22.67
2019-03-29T11:22:02.334Z,22.30
2019-03-29T11:24:31.214Z,19.55
2019-03-29T11:27:01.873Z,20.08
2019-03-29T11:29:30.964Z,16.12
2019-03-29T11:31:59.908Z,22.55
2019-03-29T11:34:29.234Z,15.80
2019-03-29T11:36:58.352Z,21.27
2019-03-29T11:39:27.656Z,17.30
2019-03-29T11:41:56.863Z,16.97
2019-03-29T11:44:25.717Z,24.82
2019-03-29T11:46:54.721Z,18.73
2019-03-29T11:49:23.923Z,20.80
2019-03-29T11:51:53.013Z,21.85
2019-03-29T11:54:22.102Z,23.02
2019-03-29T11:56:51.314Z,21.57
2019-03-29T11:59:20.312Z,18.52
2019-03-29T12:01:49.286Z,15.50
2019-03-29T12:04:18.580Z,20.12
2019-03-29T12:06:47.686Z,19.12
2019-03-29T12:09:16.793Z,22.87
2019-03-29T12:11:45.880Z,21.17
2019-03-29T12:14:16.823Z,25.35
2019-03-29T12:16:45.916Z,24.43
2019-03-29T12:19:15.296Z,19.87
2019-03-29T12:21:44.298Z,20.92
2019-03-29T12:24:13.512Z,20.48
2019-03-29T12:26:42.606Z,19.87
2019-03-29T12:29:11.708Z,16.00
2019-03-29T12:31:40.775Z,22.05
2019-03-29T12:34:10.092Z,18.37
2019-03-29T12:36:39.057Z,20.12
2019-03-29T12:39:08.248Z,16.87
2019-03-29T12:41:37.592Z,21.55
2019-03-29T12:44:06.688Z,20.32
2019-03-29T12:46:35.773Z,17.98
2019-03-29T12:49:05.287Z,19.60
2019-03-29T12:51:34.371Z,21.87
2019-03-29T12:54:03.502Z,18.73
2019-03-29T12:56:32.451Z,15.48
2019-03-29T12:59:01.673Z,17.65
2019-03-29T13:01:39.257Z,13.70
2019-03-29T13:04:01.592Z,19.65
2019-03-29T13:06:30.431Z,15.38
2019-03-29T13:08:59.478Z,15.43
2019-03-29T13:11:28.682Z,15.32
2019-03-29T13:14:09.570Z,14.43
2019-03-29T13:16:28.222Z,18.00
2019-03-29T13:18:57.514Z,15.13
2019-03-29T13:21:26.595Z,14.03
2019-03-29T13:23:57.032Z,13.78
2019-03-29T13:26:26.432Z,15.18
2019-03-29T13:28:55.399Z,15.58
2019-03-29T13:31:24.512Z,14.40
2019-03-29T13:33:53.712Z,19.92
2019-03-29T13:36:22.687Z,12.53
2019-03-29T13:38:51.692Z,15.98
2019-03-29T13:41:20.739Z,11.40
2019-03-29T13:43:49.809Z,14.50
2019-03-29T13:46:18.873Z,11.88
2019-03-29T13:48:47.960Z,14.85
2019-03-29T13:51:16.850Z,12.00
2019-03-29T13:53:45.739Z,15.18
2019-03-29T13:56:14.956Z,13.72
2019-03-29T13:58:43.822Z,11.30
2019-03-29T14:01:12.721Z,16.73
2019-03-29T14:03:41.834Z,14.93
2019-03-29T14:06:10.825Z,13.22
2019-03-29T14:08:39.903Z,9.93
2019-03-29T14:11:09.236Z,14.47
2019-03-29T14:13:38.312Z,13.15
2019-03-29T14:16:07.297Z,14.73
2019-03-29T14:18:36.305Z,14.68
2019-03-29T14:21:05.392Z,14.00
2019-03-29T14:23:34.775Z,16.95
2019-03-29T14:26:04.081Z,15.43
2019-03-29T14:28:33.178Z,11.83
2019-03-29T14:31:02.490Z,14.23
2019-03-29T14:33:31.639Z,14.07
2019-03-29T14:36:00.692Z,13.20
2019-03-29T14:38:29.660Z,11.80
2019-03-29T14:40:58.766Z,14.38
2019-03-29T14:43:27.865Z,12.70
2019-03-29T14:45:56.760Z,11.68
2019-03-29T14:48:25.911Z,14.03
2019-03-29T14:50:54.906Z,13.28
2019-03-29T14:53:23.924Z,10.88
2019-03-29T14:55:53.022Z,10.58
2019-03-29T14:58:22.045Z,9.83
2019-03-29T15:00:51.232Z,12.33
2019-03-29T15:03:20.361Z,9.88
2019-03-29T15:05:49.532Z,9.73
2019-03-29T15:08:18.732Z,12.50
2019-03-29T15:13:15.267Z,9.05
2019-03-29T15:15:44.247Z,11.57
2019-03-29T15:18:13.237Z,9.58
2019-03-29T15:20:53.342Z,9.75
2019-03-29T15:23:13.208Z,7.53
2019-03-29T15:25:43.409Z,12.43
2019-03-29T15:28:12.387Z,9.93
2019-03-29T15:30:41.421Z,10.68
2019-03-29T15:33:10.147Z,9.35
2019-03-29T15:35:39.359Z,9.98
2019-03-29T15:38:08.477Z,9.95
2019-03-29T15:40:37.555Z,10.48
2019-03-29T15:43:06.767Z,13.65
2019-03-29T15:45:35.967Z,8.98
2019-03-29T15:48:05.068Z,9.48
2019-03-29T15:50:34.367Z,10.65
2019-03-29T15:53:03.472Z,8.55
2019-03-29T15:55:32.564Z,9.55
2019-03-29T15:58:01.748Z,8.88
2019-03-29T16:00:30.626Z,10.00
2019-03-29T16:02:59.747Z,10.72
2019-03-29T16:05:28.933Z,8.90
2019-03-29T16:07:58.119Z,7.40
2019-03-29T16:10:27.227Z,8.90
2019-03-29T16:12:56.327Z,10.00
2019-03-29T16:15:35.054Z,8.65
2019-03-29T16:17:56.052Z,6.75
2019-03-29T16:20:25.128Z,7.80
2019-03-29T16:22:54.247Z,6.70
2019-03-29T16:25:23.249Z,7.55
2019-03-29T16:27:52.553Z,8.15
2019-03-29T16:30:21.627Z,7.25
2019-03-29T16:32:50.498Z,8.38
2019-03-29T16:35:19.728Z,7.83
2019-03-29T16:37:57.177Z,7.67
2019-03-29T16:40:19.121Z,9.05
2019-03-29T16:42:48.180Z,7.12
2019-03-29T16:45:17.227Z,8.13
2019-03-29T16:47:46.227Z,7.92
2019-03-29T16:50:15.502Z,7.95
2019-03-29T16:52:44.512Z,7.30
2019-03-29T16:55:14.243Z,7.12
2019-03-29T16:57:43.528Z,6.70
2019-03-29T17:00:13.787Z,7.08
2019-03-29T17:02:42.928Z,6.67
2019-03-29T17:05:12.131Z,6.70
2019-03-29T17:07:41.127Z,6.60
2019-03-29T17:10:11.599Z,7.70
2019-03-29T17:12:40.547Z,6.95
2019-03-29T17:15:10.037Z,7.50
2019-03-29T17:17:40.207Z,7.15
2019-03-29T17:20:09.470Z,6.58
2019-03-29T17:22:38.565Z,6.67
2019-03-29T17:25:08.039Z,6.37
2019-03-29T17:27:37.084Z,5.95
2019-03-29T17:30:08.727Z,5.92
2019-03-29T17:32:37.800Z,5.90
2019-03-29T17:35:07.744Z,6.60
2019-03-29T17:37:36.827Z,5.47
2019-03-29T17:40:08.992Z,5.28
2019-03-29T17:42:38.104Z,5.35
2019-03-29T17:45:08.224Z,4.37
2019-03-29T17:47:37.426Z,4.72
2019-03-29T17:50:06.954Z,4.55
2019-03-29T17:52:36.182Z,5.33
2019-03-29T17:55:06.565Z,3.98
2019-03-29T17:57:35.527Z,4.17
2019-03-29T18:00:07.378Z,3.65
2019-03-29T18:02:36.488Z,3.90
2019-03-29T18:05:07.226Z,3.95
2019-03-29T18:07:36.324Z,3.65
2019-03-29T18:10:07.076Z,4.60
2019-03-29T18:12:36.248Z,3.98
2019-03-29T18:15:07.068Z,4.50
2019-03-29T18:17:36.503Z,4.58
2019-03-29T18:20:09.743Z,4.25
2019-03-29T18:22:38.767Z,5.08
2019-03-29T18:25:08.762Z,4.60
2019-03-29T18:27:37.760Z,5.40
2019-03-29T18:30:08.644Z,7.47
2019-03-29T18:32:38.446Z,9.48
2019-03-29T18:35:08.147Z,12.13
2019-03-29T18:37:37.776Z,12.90
2019-03-29T18:40:08.887Z,12.28
2019-03-29T18:42:37.738Z,11.95
2019-03-29T18:45:08.087Z,12.40
2019-03-29T18:47:40.179Z,12.82
2019-03-29T18:50:09.271Z,12.28
2019-03-29T18:52:42.516Z,12.30
2019-03-29T18:55:09.229Z,10.00
2019-03-29T18:57:38.307Z,13.15
2019-03-29T19:00:09.165Z,13.75
2019-03-29T19:02:39.268Z,14.75
2019-03-29T19:05:09.570Z,13.08
2019-03-29T19:07:38.687Z,14.90
2019-03-29T19:10:07.991Z,14.40
2019-03-29T19:12:37.090Z,16.07
2019-03-29T19:15:06.892Z,15.20
2019-03-29T19:17:38.520Z,15.05
2019-03-29T19:20:10.194Z,13.68
2019-03-29T19:22:38.266Z,15.32
2019-03-29T19:25:30.524Z,12.88
2019-03-29T19:27:59.583Z,14.60
2019-03-29T19:30:28.604Z,13.48
2019-03-29T19:32:58.008Z,16.87
2019-03-29T19:35:27.204Z,15.08
2019-03-29T19:37:56.404Z,13.55
2019-03-29T19:40:25.587Z,16.00
2019-03-29T19:42:54.574Z,17.23
2019-03-29T19:45:23.460Z,16.25
2019-03-29T19:47:52.458Z,15.08
2019-03-29T19:50:21.551Z,17.23
2019-03-29T19:52:50.666Z,16.45
2019-03-29T19:55:19.954Z,18.23
2019-03-29T19:57:49.062Z,20.08
2019-03-29T20:00:18.816Z,20.95
2019-03-29T20:02:48.275Z,20.43
2019-03-29T20:05:29.868Z,19.57
2019-03-29T20:07:58.911Z,20.08
2019-03-29T20:10:27.940Z,17.55
2019-03-29T20:12:57.651Z,19.10
2019-03-29T20:15:26.959Z,20.00
2019-03-29T20:17:55.835Z,19.40
2019-03-29T20:20:26.187Z,18.05
2019-03-29T20:22:56.272Z,15.05
2019-03-29T20:25:28.426Z,13.80
2019-03-29T20:27:58.621Z,15.23
2019-03-29T20:30:28.428Z,14.35
2019-03-29T20:32:57.486Z,16.42
2019-03-29T20:35:26.455Z,13.75
2019-03-29T20:37:55.667Z,15.20
2019-03-29T20:40:24.667Z,15.18
2019-03-29T20:42:53.669Z,16.15
2019-03-29T20:45:22.957Z,14.68
2019-03-29T20:47:52.125Z,17.70
2019-03-29T20:50:21.367Z,16.45
2019-03-29T20:52:50.328Z,16.20
2019-03-29T20:55:19.446Z,15.85
2019-03-29T20:57:48.551Z,15.75
2019-03-29T21:00:18.749Z,14.55
2019-03-29T21:02:47.434Z,16.97
2019-03-29T21:05:16.465Z,16.30
2019-03-29T21:07:45.747Z,15.45
2019-03-29T21:10:15.110Z,15.20
2019-03-29T21:12:44.112Z,15.95
2019-03-29T21:15:13.732Z,14.30
2019-03-29T21:17:55.874Z,15.58
2019-03-29T21:20:13.602Z,15.65
2019-03-29T21:22:42.724Z,16.23
2019-03-29T21:25:11.967Z,15.98
2019-03-29T21:27:41.068Z,16.70
2019-03-29T21:30:11.956Z,15.88
2019-03-29T21:32:41.087Z,19.20
2019-03-29T21:35:10.419Z,16.50
2019-03-29T21:37:39.686Z,17.73
2019-03-29T21:40:09.417Z,15.70
2019-03-29T21:42:38.648Z,19.02
2019-03-29T21:45:09.028Z,15.88
2019-03-29T21:47:38.127Z,14.90
2019-03-29T21:50:08.558Z,15.00
2019-03-29T21:52:38.181Z,14.73
2019-03-29T21:55:08.190Z,15.53
2019-03-29T21:57:37.390Z,13.30
2019-03-29T22:00:13.231Z,14.83
2019-03-29T22:02:42.003Z,15.15
2019-03-29T22:05:11.114Z,15.98
2019-03-29T22:07:40.193Z,15.15
2019-03-29T22:10:28.307Z,17.05
2019-03-29T22:12:57.474Z,15.72
2019-03-29T22:15:26.272Z,15.80
2019-03-29T22:17:55.327Z,18.70
2019-03-29T22:20:24.427Z,19.27
2019-03-29T22:22:53.411Z,16.67
2019-03-29T22:25:22.408Z,18.17
2019-03-29T22:27:51.807Z,16.62
2019-03-29T22:30:20.824Z,17.07
2019-03-29T22:32:49.924Z,15.68
2019-03-29T22:35:18.903Z,16.42
2019-03-29T22:37:47.987Z,16.60
2019-03-29T22:40:16.987Z,16.77
2019-03-29T22:42:48.024Z,12.37
2019-03-29T22:45:17.379Z,13.28
2019-03-29T22:47:46.421Z,12.78
2019-03-29T22:53:04.877Z,13.45
2019-03-29T22:55:33.990Z,14.40
2019-03-29T22:58:03.086Z,15.38
2019-03-29T23:00:42.524Z,14.68
2019-03-29T23:03:11.383Z,15.68
2019-03-29T23:05:40.605Z,15.98
2019-03-29T23:08:09.575Z,15.20
2019-03-29T23:10:38.387Z,20.68
2019-03-29T23:13:07.369Z,16.15
2019-03-29T23:15:37.499Z,16.65
2019-03-29T23:18:06.489Z,15.85
2019-03-29T23:20:35.606Z,15.20
2019-03-29T23:23:04.766Z,14.93
2019-03-29T23:25:33.786Z,15.03
2019-03-29T23:28:02.785Z,15.13
2019-03-29T23:30:31.869Z,15.10
2019-03-29T23:33:00.849Z,14.83
2019-03-29T23:35:29.738Z,15.53
2019-03-29T23:37:58.945Z,14.68
2019-03-29T23:40:27.929Z,14.18
2019-03-29T23:42:56.930Z,16.02
2019-03-29T23:45:25.902Z,15.88
2019-03-29T23:47:54.946Z,16.37
2019-03-29T23:50:23.953Z,17.02
2019-03-29T23:52:53.218Z,15.70
2019-03-29T23:55:22.230Z,14.93
2019-03-29T23:57:51.325Z,14.80
